createdAt,value
2018-05-03T00:00:32.316Z,948.74
2018-05-03T00:01:32.310Z,948.7
2018-05-03T00:02:32.299Z,948.66
2018-05-03T00:03:32.287Z,948.64
2018-05-03T00:04:32.281Z,948.62
2018-05-03T00:05:32.269Z,948.67
2018-05-03T00:06:32.258Z,948.69
2018-05-03T00:07:32.247Z,948.71
2018-05-03T00:08:32.239Z,948.72
2018-05-03T00:09:32.229Z,948.74
2018-05-03T00:10:32.220Z,948.78
2018-05-03T00:11:32.210Z,948.79
2018-05-03T00:12:32.201Z,948.75
2018-05-03T00:13:32.192Z,948.77
2018-05-03T00:14:32.182Z,948.81
2018-05-03T00:15:32.172Z,948.79
2018-05-03T00:16:32.164Z,948.84
2018-05-03T00:17:32.154Z,948.88
2018-05-03T00:18:32.143Z,948.93
2018-05-03T00:19:32.134Z,948.99
2018-05-03T00:20:32.125Z,949
2018-05-03T00:21:32.114Z,948.99
2018-05-03T00:22:32.105Z,949.01
2018-05-03T00:23:32.095Z,949.03
2018-05-03T00:24:32.084Z,949.11
2018-05-03T00:25:32.078Z,949.15
2018-05-03T00:26:32.064Z,949.22
2018-05-03T00:27:32.054Z,949.24
2018-05-03T00:28:32.046Z,949.21
2018-05-03T00:29:32.037Z,949.15
2018-05-03T00:30:32.026Z,949.1
2018-05-03T00:31:32.019Z,949.11
2018-05-03T00:32:32.007Z,949.11
2018-05-03T00:33:31.998Z,949.12
2018-05-03T00:34:31.989Z,949.12
2018-05-03T00:35:31.978Z,949.03
2018-05-03T00:36:31.968Z,948.93
2018-05-03T00:37:31.965Z,948.89
2018-05-03T00:38:31.950Z,948.89
2018-05-03T00:39:31.940Z,948.93
2018-05-03T00:40:31.930Z,948.98
2018-05-03T00:41:31.919Z,948.96
2018-05-03T00:42:31.910Z,949.01
2018-05-03T00:43:31.899Z,949.02
2018-05-03T00:44:31.889Z,949.07
2018-05-03T00:45:31.886Z,949.09
2018-05-03T00:46:31.871Z,949.04
2018-05-03T00:47:31.877Z,949.02
2018-05-03T00:48:31.850Z,948.98
2018-05-03T00:49:31.840Z,949
2018-05-03T00:50:31.834Z,949.03
2018-05-03T00:51:31.819Z,949.11
2018-05-03T00:52:31.811Z,948.97
2018-05-03T00:53:31.801Z,948.97
2018-05-03T00:54:31.858Z,948.88
2018-05-03T00:55:31.781Z,948.84
2018-05-03T00:56:31.770Z,948.85
2018-05-03T00:57:31.764Z,948.91
2018-05-03T00:58:31.768Z,948.9
2018-05-03T00:59:31.742Z,948.93
2018-05-03T01:00:31.731Z,948.92
2018-05-03T01:01:31.723Z,948.94
2018-05-03T01:02:31.774Z,948.91
2018-05-03T01:03:31.703Z,948.89
2018-05-03T01:04:31.693Z,948.83
2018-05-03T01:05:31.883Z,948.83
2018-05-03T01:06:31.672Z,948.8
2018-05-03T01:07:31.662Z,948.8
2018-05-03T01:08:31.652Z,948.8
2018-05-03T01:09:31.641Z,948.83
2018-05-03T01:10:31.631Z,948.83
2018-05-03T01:11:31.621Z,948.78
2018-05-03T01:12:31.611Z,948.81
2018-05-03T01:13:31.600Z,948.78
2018-05-03T01:14:31.590Z,948.77
2018-05-03T01:15:31.581Z,948.79
2018-05-03T01:16:31.571Z,948.73
2018-05-03T01:17:31.560Z,948.74
2018-05-03T01:18:31.627Z,948.76
2018-05-03T01:19:31.539Z,948.71
2018-05-03T01:20:31.529Z,948.67
2018-05-03T01:21:31.518Z,948.67
2018-05-03T01:22:31.509Z,948.7
2018-05-03T01:23:31.516Z,948.68
2018-05-03T01:24:31.494Z,948.71
2018-05-03T01:25:31.482Z,948.7
2018-05-03T01:26:31.469Z,948.65
2018-05-03T01:27:31.456Z,948.61
2018-05-03T01:28:31.448Z,948.62
2018-05-03T01:29:31.443Z,948.58
2018-05-03T01:30:31.433Z,948.56
2018-05-03T01:31:31.416Z,948.54
2018-05-03T01:32:31.409Z,948.52
2018-05-03T01:33:31.402Z,948.56
2018-05-03T01:34:31.388Z,948.55
2018-05-03T01:35:31.374Z,948.49
2018-05-03T01:36:31.366Z,948.54
2018-05-03T01:37:31.361Z,948.57
2018-05-03T01:38:31.345Z,948.53
2018-05-03T01:39:31.336Z,948.49
2018-05-03T01:40:31.325Z,948.46
2018-05-03T01:41:31.315Z,948.4
2018-05-03T01:42:31.304Z,948.39
2018-05-03T01:43:31.293Z,948.38
2018-05-03T01:44:31.282Z,948.4
2018-05-03T01:45:31.277Z,948.37
2018-05-03T01:46:31.268Z,948.37
2018-05-03T01:47:31.253Z,948.41
2018-05-03T01:48:31.295Z,948.39
2018-05-03T01:49:31.232Z,948.43
2018-05-03T01:50:31.222Z,948.43
2018-05-03T01:51:31.211Z,948.42
2018-05-03T01:52:31.202Z,948.42
2018-05-03T01:53:31.192Z,948.43
2018-05-03T01:54:31.181Z,948.42
2018-05-03T01:55:31.171Z,948.42
2018-05-03T01:56:31.158Z,948.4
2018-05-03T01:57:31.149Z,948.45
2018-05-03T01:58:31.139Z,948.42
2018-05-03T01:59:31.160Z,948.42
2018-05-03T02:00:31.120Z,948.39
2018-05-03T02:01:31.109Z,948.42
2018-05-03T02:02:31.099Z,948.43
2018-05-03T02:03:31.087Z,948.49
2018-05-03T02:04:31.077Z,948.48
2018-05-03T02:05:31.068Z,948.5
2018-05-03T02:06:31.061Z,948.49
2018-05-03T02:07:31.047Z,948.48
2018-05-03T02:08:31.051Z,948.48
2018-05-03T02:09:31.027Z,948.44
2018-05-03T02:10:31.017Z,948.42
2018-05-03T02:11:31.006Z,948.44
2018-05-03T02:12:30.996Z,948.47
2018-05-03T02:13:30.990Z,948.41
2018-05-03T02:14:30.975Z,948.48
2018-05-03T02:15:30.967Z,948.5
2018-05-03T02:16:30.956Z,948.48
2018-05-03T02:17:30.945Z,948.51
2018-05-03T02:18:30.935Z,948.5
2018-05-03T02:19:30.934Z,948.47
2018-05-03T02:20:30.913Z,948.49
2018-05-03T02:21:30.904Z,948.48
2018-05-03T02:22:30.892Z,948.51
2018-05-03T02:23:30.883Z,948.54
2018-05-03T02:24:30.873Z,948.57
2018-05-03T02:25:30.863Z,948.56
2018-05-03T02:26:30.852Z,948.56
2018-05-03T02:27:30.845Z,948.56
2018-05-03T02:28:30.831Z,948.57
2018-05-03T02:29:30.821Z,948.56
2018-05-03T02:30:30.809Z,948.54
2018-05-03T02:31:30.803Z,948.51
2018-05-03T02:32:30.791Z,948.52
2018-05-03T02:33:30.781Z,948.48
2018-05-03T02:34:30.776Z,948.44
2018-05-03T02:35:30.764Z,948.48
2018-05-03T02:36:30.752Z,948.45
2018-05-03T02:37:30.742Z,948.43
2018-05-03T02:38:30.730Z,948.43
2018-05-03T02:39:30.729Z,948.4
2018-05-03T02:40:30.711Z,948.43
2018-05-03T02:41:30.699Z,948.47
2018-05-03T02:42:30.690Z,948.46
2018-05-03T02:43:30.680Z,948.49
2018-05-03T02:44:30.669Z,948.51
2018-05-03T02:45:30.659Z,948.54
2018-05-03T02:46:30.650Z,948.52
2018-05-03T02:47:30.638Z,948.5
2018-05-03T02:48:30.628Z,948.5
2018-05-03T02:49:30.626Z,948.48
2018-05-03T02:50:30.623Z,948.49
2018-05-03T02:51:30.596Z,948.44
2018-05-03T02:52:30.588Z,948.44
2018-05-03T02:53:30.578Z,948.43
2018-05-03T02:54:30.567Z,948.5
2018-05-03T02:55:30.562Z,948.48
2018-05-03T02:56:30.547Z,948.5
2018-05-03T02:57:30.537Z,948.56
2018-05-03T02:58:30.527Z,948.59
2018-05-03T02:59:30.515Z,948.55
2018-05-03T03:00:30.510Z,948.61
2018-05-03T03:01:30.501Z,948.61
2018-05-03T03:02:30.648Z,948.63
2018-05-03T03:03:30.480Z,948.68
2018-05-03T03:04:30.467Z,948.67
2018-05-03T03:05:30.455Z,948.7
2018-05-03T03:06:30.445Z,948.69
2018-05-03T03:07:30.436Z,948.75
2018-05-03T03:08:30.442Z,948.75
2018-05-03T03:09:30.451Z,948.74
2018-05-03T03:10:30.405Z,948.75
2018-05-03T03:11:30.396Z,948.78
2018-05-03T03:12:30.384Z,948.81
2018-05-03T03:13:30.377Z,948.81
2018-05-03T03:14:30.362Z,948.81
2018-05-03T03:15:30.369Z,948.78
2018-05-03T03:16:30.376Z,948.78
2018-05-03T03:17:30.333Z,948.78
2018-05-03T03:18:30.328Z,948.76
2018-05-03T03:19:30.327Z,948.76
2018-05-03T03:20:30.303Z,948.77
2018-05-03T03:21:30.296Z,948.75
2018-05-03T03:22:30.283Z,948.79
2018-05-03T03:23:30.272Z,948.8
2018-05-03T03:24:30.262Z,948.85
2018-05-03T03:25:30.252Z,948.83
2018-05-03T03:26:30.242Z,948.86
2018-05-03T03:27:30.232Z,948.89
2018-05-03T03:28:30.220Z,948.9
2018-05-03T03:29:30.210Z,948.87
2018-05-03T03:30:30.201Z,948.88
2018-05-03T03:31:30.194Z,948.89
2018-05-03T03:32:30.180Z,948.85
2018-05-03T03:33:30.168Z,948.88
2018-05-03T03:34:30.160Z,948.91
2018-05-03T03:35:30.149Z,948.92
2018-05-03T03:36:30.138Z,948.96
2018-05-03T03:37:30.127Z,948.98
2018-05-03T03:38:30.120Z,948.93
2018-05-03T03:39:30.107Z,948.94
2018-05-03T03:40:30.100Z,948.97
2018-05-03T03:41:30.087Z,949.01
2018-05-03T03:42:30.091Z,948.96
2018-05-03T03:43:30.064Z,948.99
2018-05-03T03:44:30.054Z,948.99
2018-05-03T03:45:30.045Z,948.98
2018-05-03T03:46:30.040Z,948.97
2018-05-03T03:47:30.025Z,948.94
2018-05-03T03:48:30.020Z,948.97
2018-05-03T03:49:30.005Z,948.97
2018-05-03T03:50:29.992Z,948.94
2018-05-03T03:51:29.984Z,948.98
2018-05-03T03:52:29.973Z,948.93
2018-05-03T03:53:29.963Z,948.94
2018-05-03T03:54:29.952Z,948.94
2018-05-03T03:55:29.942Z,948.97
2018-05-03T03:56:29.938Z,948.95
2018-05-03T03:57:29.922Z,948.98
2018-05-03T03:58:29.910Z,948.91
2018-05-03T03:59:29.901Z,948.96
2018-05-03T04:00:29.891Z,948.96
2018-05-03T04:01:29.882Z,948.98
2018-05-03T04:02:29.870Z,948.92
2018-05-03T04:03:29.859Z,948.94
2018-05-03T04:04:29.850Z,948.92
2018-05-03T04:05:29.839Z,948.89
2018-05-03T04:06:29.828Z,948.87
2018-05-03T04:07:29.819Z,948.89
2018-05-03T04:08:29.812Z,948.93
2018-05-03T04:09:29.798Z,948.89
2018-05-03T04:10:29.795Z,948.97
2018-05-03T04:11:29.780Z,949.06
2018-05-03T04:12:29.768Z,949.04
2018-05-03T04:13:29.758Z,949.06
2018-05-03T04:14:29.748Z,949.11
2018-05-03T04:15:29.737Z,949.13
2018-05-03T04:16:29.728Z,949.13
2018-05-03T04:17:29.718Z,949.09
2018-05-03T04:18:29.709Z,949.15
2018-05-03T04:19:29.918Z,949.11
2018-05-03T04:20:29.688Z,949.14
2018-05-03T04:21:29.679Z,949.16
2018-05-03T04:22:29.753Z,949.17
2018-05-03T04:23:29.657Z,949.21
2018-05-03T04:24:29.649Z,949.23
2018-05-03T04:25:29.639Z,949.27
2018-05-03T04:26:29.854Z,949.31
2018-05-03T04:27:29.618Z,949.33
2018-05-03T04:28:29.610Z,949.35
2018-05-03T04:29:29.615Z,949.34
2018-05-03T04:30:29.587Z,949.38
2018-05-03T04:31:29.579Z,949.35
2018-05-03T04:32:29.568Z,949.39
2018-05-03T04:33:29.558Z,949.43
2018-05-03T04:34:29.584Z,949.47
2018-05-03T04:35:29.539Z,949.39
2018-05-03T04:36:29.529Z,949.43
2018-05-03T04:37:29.520Z,949.45
2018-05-03T04:38:29.509Z,949.42
2018-05-03T04:39:29.498Z,949.4
2018-05-03T04:40:29.491Z,949.44
2018-05-03T04:41:29.479Z,949.41
2018-05-03T04:42:29.471Z,949.4
2018-05-03T04:43:29.476Z,949.41
2018-05-03T04:44:29.455Z,949.39
2018-05-03T04:45:29.440Z,949.38
2018-05-03T04:46:29.431Z,949.4
2018-05-03T04:47:29.420Z,949.47
2018-05-03T04:48:29.411Z,949.44
2018-05-03T04:49:29.400Z,949.44
2018-05-03T04:50:29.392Z,949.48
2018-05-03T04:51:29.383Z,949.49
2018-05-03T04:52:29.371Z,949.52
2018-05-03T04:53:29.362Z,949.45
2018-05-03T04:54:29.351Z,949.54
2018-05-03T04:55:29.343Z,949.53
2018-05-03T04:56:29.332Z,949.58
2018-05-03T04:57:29.323Z,949.61
2018-05-03T04:58:29.537Z,949.6
2018-05-03T04:59:29.304Z,949.64
2018-05-03T05:00:29.295Z,949.68
2018-05-03T05:01:29.286Z,949.65
2018-05-03T05:02:29.276Z,949.67
2018-05-03T05:03:29.266Z,949.62
2018-05-03T05:04:29.256Z,949.64
2018-05-03T05:05:29.247Z,949.63
2018-05-03T05:06:29.237Z,949.65
2018-05-03T05:07:29.227Z,949.64
2018-05-03T05:08:29.219Z,949.63
2018-05-03T05:09:29.214Z,949.66
2018-05-03T05:10:29.229Z,949.65
2018-05-03T05:11:29.191Z,949.66
2018-05-03T05:12:29.182Z,949.66
2018-05-03T05:13:29.172Z,949.68
2018-05-03T05:14:29.163Z,949.7
2018-05-03T05:15:29.153Z,949.72
2018-05-03T05:16:29.144Z,949.77
2018-05-03T05:17:29.137Z,949.74
2018-05-03T05:18:29.126Z,949.82
2018-05-03T05:19:29.117Z,949.84
2018-05-03T05:20:29.112Z,949.87
2018-05-03T05:21:29.098Z,949.89
2018-05-03T05:22:29.089Z,949.94
2018-05-03T05:23:29.080Z,949.94
2018-05-03T05:24:29.071Z,949.98
2018-05-03T05:25:29.061Z,950
2018-05-03T05:26:29.063Z,950.03
2018-05-03T05:27:29.043Z,950.06
2018-05-03T05:28:29.033Z,950.04
2018-05-03T05:29:29.025Z,950.08
2018-05-03T05:30:29.016Z,950.12
2018-05-03T05:31:29.010Z,950.11
2018-05-03T05:32:29.007Z,950.17
2018-05-03T05:33:28.991Z,950.13
2018-05-03T05:34:28.980Z,950.15
2018-05-03T05:35:28.968Z,950.18
2018-05-03T05:36:28.960Z,950.16
2018-05-03T05:37:28.951Z,950.16
2018-05-03T05:38:29.006Z,950.19
2018-05-03T05:39:28.933Z,950.14
2018-05-03T05:40:28.921Z,950.18
2018-05-03T05:41:28.913Z,950.17
2018-05-03T05:42:28.905Z,950.18
2018-05-03T05:43:28.895Z,950.21
2018-05-03T05:44:28.885Z,950.21
2018-05-03T05:45:28.876Z,950.23
2018-05-03T05:46:28.865Z,950.2
2018-05-03T05:47:28.859Z,950.19
2018-05-03T05:48:28.847Z,950.19
2018-05-03T05:49:28.839Z,950.2
2018-05-03T05:50:28.830Z,950.21
2018-05-03T05:51:28.821Z,950.2
2018-05-03T05:52:28.811Z,950.17
2018-05-03T05:53:28.805Z,950.18
2018-05-03T05:54:28.792Z,950.21
2018-05-03T05:55:28.782Z,950.2
2018-05-03T05:56:28.774Z,950.21
2018-05-03T05:57:28.764Z,950.24
2018-05-03T05:58:28.755Z,950.25
2018-05-03T05:59:28.749Z,950.23
2018-05-03T06:00:28.736Z,950.2
2018-05-03T06:01:28.727Z,950.23
2018-05-03T06:02:28.718Z,950.25
2018-05-03T06:03:28.709Z,950.24
2018-05-03T06:04:28.699Z,950.25
2018-05-03T06:05:28.688Z,950.23
2018-05-03T06:06:28.682Z,950.2
2018-05-03T06:07:28.672Z,950.2
2018-05-03T06:08:28.664Z,950.21
2018-05-03T06:09:28.654Z,950.18
2018-05-03T06:10:28.746Z,950.21
2018-05-03T06:11:28.637Z,950.24
2018-05-03T06:12:28.626Z,950.2
2018-05-03T06:13:28.618Z,950.15
2018-05-03T06:14:28.609Z,950.19
2018-05-03T06:15:28.601Z,950.21
2018-05-03T06:16:28.591Z,950.17
2018-05-03T06:17:28.583Z,950.18
2018-05-03T06:18:28.581Z,950.19
2018-05-03T06:19:28.566Z,950.16
2018-05-03T06:20:28.556Z,950.14
2018-05-03T06:21:28.565Z,950.17
2018-05-03T06:22:28.546Z,950.17
2018-05-03T06:23:28.530Z,950.19
2018-05-03T06:24:28.521Z,950.17
2018-05-03T06:25:28.514Z,950.18
2018-05-03T06:26:28.506Z,950.19
2018-05-03T06:27:28.496Z,950.22
2018-05-03T06:28:28.488Z,950.2
2018-05-03T06:29:28.480Z,950.31
2018-05-03T06:30:28.471Z,950.28
2018-05-03T06:31:28.464Z,950.27
2018-05-03T06:32:28.457Z,950.28
2018-05-03T06:33:28.449Z,950.32
2018-05-03T06:34:28.442Z,950.32
2018-05-03T06:35:28.432Z,950.34
2018-05-03T06:36:28.425Z,950.35
2018-05-03T06:37:28.417Z,950.31
2018-05-03T06:38:28.409Z,950.37
2018-05-03T06:39:28.401Z,950.34
2018-05-03T06:40:28.392Z,950.37
2018-05-03T06:41:28.383Z,950.36
2018-05-03T06:42:28.375Z,950.43
2018-05-03T06:43:28.368Z,950.46
2018-05-03T06:44:28.360Z,950.47
2018-05-03T06:45:28.352Z,950.51
2018-05-03T06:46:28.344Z,950.53
2018-05-03T06:47:28.336Z,950.58
2018-05-03T06:48:28.329Z,950.58
2018-05-03T06:49:28.322Z,950.6
2018-05-03T06:50:28.314Z,950.6
2018-05-03T06:51:28.307Z,950.6
2018-05-03T06:52:28.296Z,950.64
2018-05-03T06:53:28.287Z,950.65
2018-05-03T06:54:28.281Z,950.69
2018-05-03T06:55:28.272Z,950.74
2018-05-03T06:56:28.264Z,950.79
2018-05-03T06:57:28.256Z,950.78
2018-05-03T06:58:28.285Z,950.81
2018-05-03T06:59:28.241Z,950.84
2018-05-03T07:00:28.231Z,950.84
2018-05-03T07:01:28.225Z,950.86
2018-05-03T07:02:28.218Z,950.85
2018-05-03T07:03:28.209Z,950.88
2018-05-03T07:04:28.329Z,950.92
2018-05-03T07:05:28.192Z,950.93
2018-05-03T07:06:28.185Z,950.98
2018-05-03T07:07:28.177Z,950.98
2018-05-03T07:08:28.168Z,950.99
2018-05-03T07:09:28.160Z,950.99
2018-05-03T07:10:28.153Z,951.03
2018-05-03T07:11:28.144Z,951.06
2018-05-03T07:12:28.138Z,951.06
2018-05-03T07:13:28.129Z,951.1
2018-05-03T07:14:28.120Z,951.1
2018-05-03T07:15:28.111Z,951.12
2018-05-03T07:16:28.107Z,951.16
2018-05-03T07:17:28.097Z,951.1
2018-05-03T07:18:28.087Z,951.18
2018-05-03T07:19:28.079Z,951.16
2018-05-03T07:20:28.071Z,951.16
2018-05-03T07:21:28.064Z,951.17
2018-05-03T07:22:28.055Z,951.14
2018-05-03T07:23:28.046Z,951.11
2018-05-03T07:24:28.039Z,951.16
2018-05-03T07:25:28.030Z,951.14
2018-05-03T07:26:28.022Z,951.13
2018-05-03T07:27:28.013Z,951.17
2018-05-03T07:28:28.006Z,951.17
2018-05-03T07:29:28.093Z,951.15
2018-05-03T07:30:27.990Z,951.17
2018-05-03T07:31:27.982Z,951.23
2018-05-03T07:32:27.974Z,951.18
2018-05-03T07:33:27.965Z,951.19
2018-05-03T07:34:27.956Z,951.21
2018-05-03T07:35:27.949Z,951.2
2018-05-03T07:36:27.940Z,951.17
2018-05-03T07:37:27.948Z,951.2
2018-05-03T07:38:27.929Z,951.21
2018-05-03T07:39:27.917Z,951.22
2018-05-03T07:40:27.908Z,951.25
2018-05-03T07:41:27.902Z,951.3
2018-05-03T07:42:27.892Z,951.33
2018-05-03T07:43:27.891Z,951.34
2018-05-03T07:44:27.875Z,951.38
2018-05-03T07:45:27.874Z,951.39
2018-05-03T07:46:27.860Z,951.39
2018-05-03T07:47:27.852Z,951.4
2018-05-03T07:48:27.849Z,951.46
2018-05-03T07:49:27.836Z,951.46
2018-05-03T07:50:27.830Z,951.47
2018-05-03T07:51:27.823Z,951.47
2018-05-03T07:52:27.813Z,951.5
2018-05-03T07:53:27.808Z,951.51
2018-05-03T07:54:27.797Z,951.5
2018-05-03T07:55:27.789Z,951.6
2018-05-03T07:56:27.781Z,951.61
2018-05-03T07:57:27.774Z,951.62
2018-05-03T07:58:27.770Z,951.62
2018-05-03T07:59:27.763Z,951.67
2018-05-03T08:00:27.750Z,951.67
2018-05-03T08:01:27.743Z,951.7
2018-05-03T08:02:27.753Z,951.67
2018-05-03T08:03:27.726Z,951.68
2018-05-03T08:04:27.719Z,951.68
2018-05-03T08:05:27.714Z,951.71
2018-05-03T08:06:27.704Z,951.7
2018-05-03T08:07:27.697Z,951.7
2018-05-03T08:08:27.690Z,951.72
2018-05-03T08:09:27.682Z,951.73
2018-05-03T08:10:27.679Z,951.74
2018-05-03T08:11:27.667Z,951.79
2018-05-03T08:12:27.676Z,951.79
2018-05-03T08:13:27.652Z,951.79
2018-05-03T08:14:27.644Z,951.77
2018-05-03T08:15:27.637Z,951.74
2018-05-03T08:16:27.629Z,951.78
2018-05-03T08:17:27.621Z,951.79
2018-05-03T08:18:27.614Z,951.88
2018-05-03T08:19:27.606Z,951.92
2018-05-03T08:20:27.599Z,951.91
2018-05-03T08:21:27.592Z,951.95
2018-05-03T08:22:27.683Z,951.98
2018-05-03T08:23:27.582Z,951.97
2018-05-03T08:24:27.573Z,951.94
2018-05-03T08:25:27.563Z,951.95
2018-05-03T08:26:27.557Z,951.97
2018-05-03T08:27:27.548Z,952.01
2018-05-03T08:28:27.618Z,952.01
2018-05-03T08:29:27.534Z,952.03
2018-05-03T08:30:27.550Z,952.05
2018-05-03T08:31:27.522Z,952.02
2018-05-03T08:32:27.516Z,952
2018-05-03T08:33:27.510Z,952.05
2018-05-03T08:34:27.505Z,952.09
2018-05-03T08:35:27.499Z,952.09
2018-05-03T08:36:27.491Z,952.12
2018-05-03T08:37:27.485Z,952.09
2018-05-03T08:38:27.479Z,952.13
2018-05-03T08:39:27.474Z,952.15
2018-05-03T08:40:27.468Z,952.1
2018-05-03T08:41:27.462Z,952.18
2018-05-03T08:42:27.457Z,952.17
2018-05-03T08:43:27.449Z,952.2
2018-05-03T08:44:27.445Z,952.21
2018-05-03T08:45:27.438Z,952.21
2018-05-03T08:46:27.432Z,952.24
2018-05-03T08:47:27.425Z,952.24
2018-05-03T08:48:27.429Z,952.28
2018-05-03T08:49:27.415Z,952.3
2018-05-03T08:50:27.412Z,952.3
2018-05-03T08:51:27.402Z,952.3
2018-05-03T08:52:27.398Z,952.37
2018-05-03T08:53:27.392Z,952.35
2018-05-03T08:54:27.387Z,952.36
2018-05-03T08:55:27.419Z,952.44
2018-05-03T08:56:27.376Z,952.44
2018-05-03T08:57:27.371Z,952.47
2018-05-03T08:58:27.362Z,952.48
2018-05-03T08:59:27.358Z,952.52
2018-05-03T09:00:27.351Z,952.53
2018-05-03T09:01:27.348Z,952.53
2018-05-03T09:02:27.339Z,952.53
2018-05-03T09:03:27.334Z,952.58
2018-05-03T09:04:27.331Z,952.58
2018-05-03T09:05:27.322Z,952.58
2018-05-03T09:06:27.316Z,952.58
2018-05-03T09:07:27.314Z,952.58
2018-05-03T09:08:27.302Z,952.56
2018-05-03T09:09:27.298Z,952.61
2018-05-03T09:10:27.293Z,952.54
2018-05-03T09:11:27.286Z,952.57
2018-05-03T09:12:27.281Z,952.56
2018-05-03T09:13:27.276Z,952.54
2018-05-03T09:14:27.268Z,952.6
2018-05-03T09:15:27.265Z,952.63
2018-05-03T09:16:27.257Z,952.61
2018-05-03T09:17:27.251Z,952.58
2018-05-03T09:18:27.245Z,952.56
2018-05-03T09:19:27.238Z,952.58
2018-05-03T09:20:27.231Z,952.58
2018-05-03T09:21:27.233Z,952.57
2018-05-03T09:22:27.226Z,952.61
2018-05-03T09:23:27.214Z,952.57
2018-05-03T09:24:27.207Z,952.59
2018-05-03T09:25:27.203Z,952.62
2018-05-03T09:26:27.196Z,952.66
2018-05-03T09:27:27.190Z,952.61
2018-05-03T09:28:27.185Z,952.66
2018-05-03T09:29:27.189Z,952.7
2018-05-03T09:30:27.173Z,952.69
2018-05-03T09:31:27.171Z,952.71
2018-05-03T09:32:27.160Z,952.66
2018-05-03T09:33:27.154Z,952.63
2018-05-03T09:34:27.148Z,952.64
2018-05-03T09:35:27.143Z,952.72
2018-05-03T09:36:27.139Z,952.7
2018-05-03T09:37:27.131Z,952.68
2018-05-03T09:38:27.130Z,952.71
2018-05-03T09:39:27.119Z,952.68
2018-05-03T09:40:27.114Z,952.7
2018-05-03T09:41:27.109Z,952.73
2018-05-03T09:42:27.104Z,952.74
2018-05-03T09:43:27.097Z,952.75
2018-05-03T09:44:27.114Z,952.75
2018-05-03T09:45:27.085Z,952.75
2018-05-03T09:46:27.078Z,952.7
2018-05-03T09:47:27.078Z,952.76
2018-05-03T09:48:27.068Z,952.76
2018-05-03T09:49:27.062Z,952.74
2018-05-03T09:50:27.057Z,952.74
2018-05-03T09:51:27.050Z,952.73
2018-05-03T09:52:27.055Z,952.75
2018-05-03T09:53:27.039Z,952.7
2018-05-03T09:54:27.032Z,952.74
2018-05-03T09:55:27.027Z,952.74
2018-05-03T09:56:27.023Z,952.81
2018-05-03T09:57:27.017Z,952.81
2018-05-03T09:58:27.027Z,952.82
2018-05-03T09:59:27.124Z,952.86
2018-05-03T10:00:27.001Z,952.87
2018-05-03T10:01:26.995Z,952.87
2018-05-03T10:02:26.989Z,952.86
2018-05-03T10:03:26.984Z,952.89
2018-05-03T10:04:26.979Z,952.88
2018-05-03T10:05:26.975Z,952.91
2018-05-03T10:06:26.969Z,952.83
2018-05-03T10:07:26.963Z,952.86
2018-05-03T10:08:26.961Z,952.85
2018-05-03T10:09:26.952Z,952.84
2018-05-03T10:10:26.947Z,952.89
2018-05-03T10:11:26.943Z,952.85
2018-05-03T10:12:26.938Z,952.86
2018-05-03T10:13:26.932Z,952.89
2018-05-03T10:14:26.928Z,952.88
2018-05-03T10:15:26.921Z,952.95
2018-05-03T10:16:26.919Z,952.94
2018-05-03T10:17:26.912Z,952.95
2018-05-03T10:18:26.907Z,953.01
2018-05-03T10:19:26.903Z,953.03
2018-05-03T10:20:26.898Z,952.98
2018-05-03T10:21:26.892Z,953.04
2018-05-03T10:22:26.888Z,953.06
2018-05-03T10:23:26.883Z,953.02
2018-05-03T10:24:26.877Z,952.94
2018-05-03T10:25:26.873Z,952.96
2018-05-03T10:26:26.867Z,952.92
2018-05-03T10:27:26.862Z,952.91
2018-05-03T10:28:26.876Z,952.9
2018-05-03T10:29:26.852Z,952.89
2018-05-03T10:30:26.848Z,952.89
2018-05-03T10:31:26.843Z,952.9
2018-05-03T10:32:26.839Z,952.85
2018-05-03T10:33:26.834Z,952.85
2018-05-03T10:34:26.832Z,952.82
2018-05-03T10:35:26.825Z,952.82
2018-05-03T10:36:26.820Z,952.8
2018-05-03T10:37:26.853Z,952.83
2018-05-03T10:38:26.812Z,952.84
2018-05-03T10:39:26.806Z,952.83
2018-05-03T10:40:26.812Z,952.86
2018-05-03T10:41:26.801Z,952.88
2018-05-03T10:42:26.792Z,952.9
2018-05-03T10:43:26.786Z,952.91
2018-05-03T10:44:26.783Z,952.92
2018-05-03T10:45:26.778Z,952.92
2018-05-03T10:46:26.771Z,952.9
2018-05-03T10:47:26.768Z,952.9
2018-05-03T10:48:26.764Z,952.92
2018-05-03T10:49:26.759Z,952.93
2018-05-03T10:50:26.754Z,952.93
2018-05-03T10:51:26.748Z,952.89
2018-05-03T10:52:26.749Z,952.93
2018-05-03T10:53:26.741Z,952.88
2018-05-03T10:54:26.734Z,952.91
2018-05-03T10:55:26.730Z,952.91
2018-05-03T10:56:26.724Z,952.91
2018-05-03T10:57:26.738Z,952.88
2018-05-03T10:58:26.714Z,952.91
2018-05-03T10:59:26.711Z,952.91
2018-05-03T11:00:26.708Z,953.01
2018-05-03T11:01:26.701Z,953.01
2018-05-03T11:02:26.697Z,953.02
2018-05-03T11:03:26.693Z,953.06
2018-05-03T11:04:26.688Z,953.09
2018-05-03T11:05:26.775Z,953.13
2018-05-03T11:06:26.677Z,953.08
2018-05-03T11:07:26.673Z,953
2018-05-03T11:08:26.669Z,953.11
2018-05-03T11:09:26.664Z,953.14
2018-05-03T11:10:26.880Z,953.08
2018-05-03T11:11:26.657Z,953.03
2018-05-03T11:12:26.652Z,953.17
2018-05-03T11:13:26.648Z,953.04
2018-05-03T11:14:26.644Z,953.07
2018-05-03T11:15:26.638Z,953.03
2018-05-03T11:16:26.635Z,953.07
2018-05-03T11:17:26.638Z,952.98
2018-05-03T11:18:26.628Z,952.96
2018-05-03T11:19:26.623Z,952.96
2018-05-03T11:20:26.621Z,952.92
2018-05-03T11:21:26.622Z,952.91
2018-05-03T11:22:26.613Z,952.95
2018-05-03T11:23:26.608Z,952.96
2018-05-03T11:24:26.623Z,952.97
2018-05-03T11:25:26.601Z,952.95
2018-05-03T11:26:26.595Z,952.96
2018-05-03T11:27:26.594Z,952.92
2018-05-03T11:28:26.590Z,952.93
2018-05-03T11:29:26.593Z,952.92
2018-05-03T11:30:26.580Z,952.97
2018-05-03T11:31:26.602Z,952.91
2018-05-03T11:32:26.573Z,952.95
2018-05-03T11:33:26.576Z,952.92
2018-05-03T11:34:26.563Z,952.9
2018-05-03T11:35:26.578Z,952.86
2018-05-03T11:36:26.558Z,952.95
2018-05-03T11:37:26.552Z,952.97
2018-05-03T11:38:26.566Z,952.92
2018-05-03T11:39:26.544Z,952.89
2018-05-03T11:40:26.541Z,952.91
2018-05-03T11:41:26.539Z,952.98
2018-05-03T11:42:26.531Z,952.98
2018-05-03T11:43:26.527Z,952.95
2018-05-03T11:44:26.525Z,952.99
2018-05-03T11:45:26.535Z,952.98
2018-05-03T11:46:26.516Z,952.96
2018-05-03T11:47:26.513Z,952.98
2018-05-03T11:48:26.510Z,953
2018-05-03T11:49:26.504Z,952.97
2018-05-03T11:50:26.501Z,953.01
2018-05-03T11:51:26.498Z,953
2018-05-03T11:52:26.497Z,952.96
2018-05-03T11:53:26.488Z,952.97
2018-05-03T11:54:26.492Z,952.99
2018-05-03T11:55:26.481Z,953
2018-05-03T11:56:26.479Z,952.98
2018-05-03T11:57:26.475Z,953.03
2018-05-03T11:58:26.471Z,952.99
2018-05-03T11:59:26.544Z,952.94
2018-05-03T12:00:26.467Z,953
2018-05-03T12:01:26.459Z,952.98
2018-05-03T12:02:26.538Z,952.96
2018-05-03T12:03:26.451Z,952.97
2018-05-03T12:04:26.449Z,952.94
2018-05-03T12:05:26.444Z,952.92
2018-05-03T12:06:26.440Z,952.96
2018-05-03T12:07:26.435Z,952.93
2018-05-03T12:08:26.431Z,952.97
2018-05-03T12:09:26.428Z,952.92
2018-05-03T12:10:26.424Z,952.99
2018-05-03T12:11:26.622Z,952.95
2018-05-03T12:12:26.415Z,952.97
2018-05-03T12:13:26.413Z,952.92
2018-05-03T12:14:26.407Z,953.01
2018-05-03T12:15:26.404Z,953.01
2018-05-03T12:16:26.400Z,952.94
2018-05-03T12:17:26.396Z,952.94
2018-05-03T12:18:26.390Z,953.06
2018-05-03T12:19:26.387Z,953.03
2018-05-03T12:20:26.383Z,953.01
2018-05-03T12:21:26.377Z,953.03
2018-05-03T12:22:26.372Z,953.04
2018-05-03T12:23:26.368Z,953.02
2018-05-03T12:24:26.380Z,953.05
2018-05-03T12:25:26.364Z,952.98
2018-05-03T12:26:26.356Z,952.96
2018-05-03T12:27:26.352Z,952.97
2018-05-03T12:28:26.348Z,953.01
2018-05-03T12:29:26.343Z,953.09
2018-05-03T12:30:26.337Z,953.08
2018-05-03T12:31:26.333Z,953.07